createdAt,value
2022-12-24T00:00:40.065Z,56.95
2022-12-24T00:03:06.975Z,57.05
2022-12-24T00:05:33.751Z,56.85
2022-12-24T00:08:00.509Z,57.07
2022-12-24T00:10:27.513Z,56.97
2022-12-24T00:12:54.390Z,57.21
2022-12-24T00:15:21.130Z,57.15
2022-12-24T00:17:47.991Z,57.24
2022-12-24T00:20:14.868Z,56.99
2022-12-24T00:22:41.621Z,57.37
2022-12-24T00:25:08.825Z,56.88
2022-12-24T00:27:35.698Z,57.37
2022-12-24T00:30:02.378Z,57.04
2022-12-24T00:32:29.157Z,56.94
2022-12-24T00:34:56.020Z,57.26
2022-12-24T00:37:22.869Z,57.38
2022-12-24T00:39:49.643Z,57.33
2022-12-24T00:42:16.469Z,57.11
2022-12-24T00:44:43.084Z,57.20
2022-12-24T00:47:12.153Z,57.11
2022-12-24T00:49:39.047Z,57.32
2022-12-24T00:52:05.772Z,57.09
2022-12-24T00:54:32.395Z,57.14
2022-12-24T00:56:59.113Z,57.09
2022-12-24T00:59:25.727Z,57.29
2022-12-24T01:01:52.387Z,57.16
2022-12-24T01:04:29.448Z,57.33
2022-12-24T01:06:56.483Z,57.30
2022-12-24T01:09:23.347Z,56.94
2022-12-24T01:11:49.984Z,57.03
2022-12-24T01:14:16.638Z,57.10
2022-12-24T01:16:43.249Z,57.36
2022-12-24T01:19:10.143Z,57.22
2022-12-24T01:21:36.808Z,57.01
2022-12-24T01:24:03.627Z,57.16
2022-12-24T01:26:30.228Z,57.11
2022-12-24T01:28:57.781Z,57.07
2022-12-24T01:31:24.633Z,57.13
2022-12-24T01:33:51.364Z,56.86
2022-12-24T01:36:18.016Z,56.86
2022-12-24T01:38:44.672Z,57.07
2022-12-24T01:41:25.703Z,56.86
2022-12-24T01:43:52.432Z,56.83
2022-12-24T01:46:20.800Z,57.04
2022-12-24T01:48:49.925Z,57.12
2022-12-24T01:51:18.045Z,57.31
2022-12-24T01:53:47.510Z,56.90
2022-12-24T01:56:14.820Z,56.85
2022-12-24T01:58:43.667Z,57.23
2022-12-24T02:01:10.391Z,56.98
2022-12-24T02:03:37.145Z,56.84
2022-12-24T02:06:04.251Z,56.82
2022-12-24T02:08:40.259Z,57.08
2022-12-24T02:11:10.819Z,57.13
2022-12-24T02:13:37.580Z,56.82
2022-12-24T02:16:11.756Z,57.03
2022-12-24T02:18:48.169Z,56.75
2022-12-24T02:21:24.731Z,57.09
2022-12-24T02:24:02.548Z,56.98
2022-12-24T02:26:41.423Z,57.20
2022-12-24T02:29:11.383Z,56.90
2022-12-24T02:31:41.347Z,57.02
2022-12-24T02:34:12.448Z,57.12
2022-12-24T02:36:43.129Z,57.19
2022-12-24T02:39:12.729Z,56.85
2022-12-24T02:41:51.528Z,56.78
2022-12-24T02:44:19.343Z,56.87
2022-12-24T02:46:46.957Z,56.74
2022-12-24T02:49:14.067Z,57.18
2022-12-24T02:51:40.687Z,56.87
2022-12-24T02:54:07.770Z,56.85
2022-12-24T02:56:46.087Z,56.71
2022-12-24T02:59:12.918Z,56.93
2022-12-24T03:01:49.793Z,57.14
2022-12-24T03:04:39.907Z,56.85
2022-12-24T03:07:11.156Z,56.92
2022-12-24T03:09:43.128Z,56.81
2022-12-24T03:12:15.736Z,57.05
2022-12-24T03:14:43.335Z,56.88
2022-12-24T03:17:10.487Z,56.58
2022-12-24T03:19:37.652Z,56.69
2022-12-24T03:22:07.767Z,56.67
2022-12-24T03:24:35.053Z,56.67
2022-12-24T03:27:02.343Z,56.98
2022-12-24T03:29:28.956Z,56.97
2022-12-24T03:32:01.308Z,56.88
2022-12-24T03:34:27.976Z,56.76
2022-12-24T03:36:54.582Z,57.02
2022-12-24T03:39:21.337Z,56.74
2022-12-24T03:41:48.535Z,56.85
2022-12-24T03:44:15.895Z,56.98
2022-12-24T03:46:42.747Z,56.65
2022-12-24T03:49:09.539Z,56.98
2022-12-24T03:51:36.349Z,56.66
2022-12-24T03:54:03.199Z,56.95
2022-12-24T03:56:30.037Z,56.53
2022-12-24T03:58:56.848Z,56.74
2022-12-24T04:01:23.821Z,56.72
2022-12-24T04:03:50.779Z,56.97
2022-12-24T04:06:18.223Z,56.98
2022-12-24T04:08:45.047Z,56.83
2022-12-24T04:11:13.413Z,56.74
2022-12-24T04:13:40.259Z,56.98
2022-12-24T04:16:08.498Z,56.73
2022-12-24T04:18:35.928Z,56.56
2022-12-24T04:21:02.778Z,56.71
2022-12-24T04:23:31.498Z,56.66
2022-12-24T04:25:59.872Z,56.85
2022-12-24T04:28:26.742Z,56.65
2022-12-24T04:30:58.116Z,56.80
2022-12-24T04:33:25.012Z,56.57
2022-12-24T04:35:51.882Z,56.60
2022-12-24T04:38:18.741Z,56.64
2022-12-24T04:40:45.572Z,56.63
2022-12-24T04:43:12.409Z,56.61
2022-12-24T04:45:39.514Z,56.41
2022-12-24T04:48:06.407Z,56.82
2022-12-24T04:50:33.228Z,56.83
2022-12-24T04:53:00.030Z,56.43
2022-12-24T04:55:26.847Z,56.60
2022-12-24T04:57:53.688Z,56.38
2022-12-24T05:00:20.725Z,56.70
2022-12-24T05:02:47.640Z,56.82
2022-12-24T05:05:14.593Z,56.35
2022-12-24T05:07:41.462Z,56.52
2022-12-24T05:10:08.908Z,56.51
2022-12-24T05:12:35.775Z,56.58
2022-12-24T05:15:02.640Z,56.69
2022-12-24T05:17:29.453Z,56.60
2022-12-24T05:19:56.362Z,56.56
2022-12-24T05:22:26.201Z,56.51
2022-12-24T05:24:56.087Z,56.43
2022-12-24T05:27:23.037Z,56.29
2022-12-24T05:29:49.816Z,56.40
2022-12-24T05:32:16.760Z,56.67
2022-12-24T05:34:43.569Z,56.65
2022-12-24T05:37:10.456Z,56.45
2022-12-24T05:39:37.276Z,56.22
2022-12-24T05:42:04.253Z,56.28
2022-12-24T05:44:31.187Z,56.58
2022-12-24T05:46:57.991Z,56.37
2022-12-24T05:49:24.790Z,56.61
2022-12-24T05:51:51.681Z,56.38
2022-12-24T05:54:18.461Z,56.14
2022-12-24T05:56:45.395Z,56.32
2022-12-24T05:59:12.206Z,56.58
2022-12-24T06:01:39.381Z,56.28
2022-12-24T06:04:06.392Z,56.10
2022-12-24T06:06:33.391Z,56.55
2022-12-24T06:09:00.283Z,56.29
2022-12-24T06:11:27.975Z,56.29
2022-12-24T06:13:55.005Z,56.26
2022-12-24T06:16:22.833Z,56.13
2022-12-24T06:18:50.261Z,56.42
2022-12-24T06:21:17.414Z,56.47
2022-12-24T06:23:44.873Z,56.47
2022-12-24T06:26:12.905Z,56.15
2022-12-24T06:28:39.931Z,56.28
2022-12-24T06:31:07.899Z,56.15
2022-12-24T06:33:34.918Z,56.26
2022-12-24T06:36:02.030Z,55.98
2022-12-24T06:38:30.670Z,56.20
2022-12-24T06:40:57.592Z,55.96
2022-12-24T06:43:24.542Z,56.37
2022-12-24T06:45:51.525Z,56.21
2022-12-24T06:48:18.408Z,56.16
2022-12-24T06:50:45.298Z,55.94
2022-12-24T06:53:12.276Z,55.91
2022-12-24T06:55:39.137Z,56.14
2022-12-24T06:58:06.032Z,55.93
2022-12-24T07:00:32.920Z,56.30
2022-12-24T07:02:59.881Z,56.12
2022-12-24T07:05:26.885Z,55.86
2022-12-24T07:07:53.951Z,56.29
2022-12-24T07:10:21.879Z,56.01
2022-12-24T07:12:48.737Z,56.16
2022-12-24T07:15:16.794Z,55.86
2022-12-24T07:17:43.703Z,56.16
2022-12-24T07:20:12.492Z,56.13
2022-12-24T07:22:39.318Z,56.04
2022-12-24T07:25:06.536Z,55.84
2022-12-24T07:27:33.407Z,56.19
2022-12-24T07:30:00.183Z,56.05
2022-12-24T07:32:27.002Z,56.15
2022-12-24T07:34:53.855Z,55.92
2022-12-24T07:37:20.657Z,55.90
2022-12-24T07:39:47.450Z,55.82
2022-12-24T07:42:14.317Z,55.90
2022-12-24T07:44:41.273Z,55.91
2022-12-24T07:47:08.156Z,55.85
2022-12-24T07:49:36.542Z,55.72
2022-12-24T07:52:03.650Z,56.13
2022-12-24T07:54:30.531Z,55.81
2022-12-24T07:56:57.454Z,56.11
2022-12-24T07:59:24.443Z,56.11
2022-12-24T08:01:51.535Z,55.66
2022-12-24T08:04:18.520Z,55.87
2022-12-24T08:06:45.387Z,56.03
2022-12-24T08:09:14.410Z,55.97
2022-12-24T08:11:46.160Z,55.64
2022-12-24T08:14:16.667Z,55.87
2022-12-24T08:16:43.621Z,56.03
2022-12-24T08:19:10.687Z,55.86
2022-12-24T08:21:37.477Z,56.10
2022-12-24T08:24:04.538Z,55.60
2022-12-24T08:26:31.377Z,55.85
2022-12-24T08:28:58.294Z,55.75
2022-12-24T08:31:25.223Z,55.70
2022-12-24T08:33:52.123Z,55.95
2022-12-24T08:36:18.965Z,55.94
2022-12-24T08:38:45.815Z,55.77
2022-12-24T08:41:13.105Z,55.84
2022-12-24T08:43:40.043Z,55.95
2022-12-24T08:46:06.979Z,55.87
2022-12-24T08:48:34.146Z,55.54
2022-12-24T08:51:00.968Z,55.83
2022-12-24T08:53:27.813Z,55.50
2022-12-24T08:56:01.487Z,55.78
2022-12-24T08:58:28.279Z,55.54
2022-12-24T09:00:55.153Z,55.64
2022-12-24T09:03:27.527Z,55.70
2022-12-24T09:05:54.871Z,55.58
2022-12-24T09:08:21.701Z,55.64
2022-12-24T09:10:48.514Z,55.36
2022-12-24T09:13:15.328Z,55.70
2022-12-24T09:15:42.226Z,55.47
2022-12-24T09:18:09.173Z,55.55
2022-12-24T09:20:36.084Z,55.57
2022-12-24T09:23:02.917Z,55.67
2022-12-24T09:25:29.732Z,55.51
2022-12-24T09:27:56.605Z,55.52
2022-12-24T09:30:23.557Z,55.53
2022-12-24T09:32:51.648Z,55.62
2022-12-24T09:35:18.490Z,55.52
2022-12-24T09:37:45.327Z,55.48
2022-12-24T09:40:21.843Z,55.57
2022-12-24T09:42:49.121Z,55.76
2022-12-24T09:45:17.333Z,55.73
2022-12-24T09:47:46.926Z,55.38
2022-12-24T09:50:16.856Z,55.54
2022-12-24T09:52:45.865Z,55.34
2022-12-24T09:55:13.013Z,55.42
2022-12-24T09:57:42.009Z,55.40
2022-12-24T10:00:20.055Z,55.34
2022-12-24T10:02:47.332Z,55.74
2022-12-24T10:05:16.108Z,55.34
2022-12-24T10:07:46.700Z,55.64
2022-12-24T10:10:16.637Z,55.66
2022-12-24T10:12:49.332Z,55.56
2022-12-24T10:15:19.689Z,55.55
2022-12-24T10:17:53.963Z,55.70
2022-12-24T10:20:24.014Z,55.48
2022-12-24T10:22:53.934Z,55.70
2022-12-24T10:25:25.371Z,55.46
2022-12-24T10:27:55.107Z,55.35
2022-12-24T10:30:23.564Z,55.70
2022-12-24T10:32:52.171Z,55.41
2022-12-24T10:35:23.158Z,55.62
2022-12-24T10:37:51.315Z,55.51
2022-12-24T10:40:25.905Z,55.57
2022-12-24T10:42:52.822Z,55.64
2022-12-24T10:45:22.184Z,55.38
2022-12-24T10:47:51.262Z,55.78
2022-12-24T10:50:25.251Z,55.79
2022-12-24T10:52:56.128Z,55.58
2022-12-24T10:55:24.516Z,55.51
2022-12-24T10:57:58.491Z,55.60
2022-12-24T11:00:31.763Z,55.62
2022-12-24T11:03:05.507Z,55.44
2022-12-24T11:05:34.954Z,55.61
2022-12-24T11:08:04.210Z,55.38
2022-12-24T11:10:32.155Z,55.46
2022-12-24T11:13:35.147Z,55.36
2022-12-24T11:15:46.119Z,55.56
2022-12-24T11:18:14.882Z,55.54
2022-12-24T11:20:42.260Z,55.26
2022-12-24T11:23:15.991Z,55.67
2022-12-24T11:25:47.666Z,55.65
2022-12-24T11:28:17.592Z,55.26
2022-12-24T11:30:55.844Z,55.40
2022-12-24T11:33:22.920Z,55.70
2022-12-24T11:35:52.229Z,55.69
2022-12-24T11:38:22.197Z,55.51
2022-12-24T11:40:51.139Z,55.67
2022-12-24T11:43:21.107Z,55.39
2022-12-24T11:45:51.007Z,55.63
2022-12-24T11:48:20.911Z,55.37
2022-12-24T11:50:55.641Z,55.65
2022-12-24T11:53:26.221Z,55.62
2022-12-24T11:55:56.246Z,55.22
2022-12-24T11:58:23.536Z,55.40
2022-12-24T12:00:51.632Z,55.32
2022-12-24T12:03:21.541Z,55.38
2022-12-24T12:05:48.535Z,55.47
2022-12-24T12:08:18.652Z,55.60
2022-12-24T12:10:46.414Z,55.29
2022-12-24T12:13:16.128Z,55.59
2022-12-24T12:15:47.014Z,55.29
2022-12-24T12:18:17.218Z,55.50
2022-12-24T12:20:46.406Z,55.37
2022-12-24T12:23:16.353Z,55.67
2022-12-24T12:25:46.258Z,55.49
2022-12-24T12:28:20.822Z,55.74
2022-12-24T12:30:54.582Z,55.60
2022-12-24T12:33:27.149Z,55.68
2022-12-24T12:35:55.348Z,55.59
2022-12-24T12:38:23.748Z,55.65
2022-12-24T12:40:53.805Z,55.71
2022-12-24T12:43:21.472Z,55.51
2022-12-24T12:45:51.570Z,55.39
2022-12-24T12:48:21.461Z,55.55
2022-12-24T12:50:58.865Z,55.52
2022-12-24T12:53:28.751Z,55.76
2022-12-24T12:55:58.649Z,55.72
2022-12-24T12:58:26.942Z,55.57
2022-12-24T13:00:58.308Z,55.75
2022-12-24T13:03:26.508Z,55.49
2022-12-24T13:05:56.928Z,55.95
2022-12-24T13:08:24.058Z,55.81
2022-12-24T13:10:53.925Z,55.86
2022-12-24T13:13:23.903Z,55.85
2022-12-24T13:16:00.310Z,55.63
2022-12-24T13:18:39.179Z,55.86
2022-12-24T13:21:14.004Z,55.76
2022-12-24T13:23:40.825Z,56.08
2022-12-24T13:26:11.761Z,55.91
2022-12-24T13:28:38.980Z,56.11
2022-12-24T13:31:09.027Z,56.05
2022-12-24T13:33:36.197Z,56.16
2022-12-24T13:36:05.170Z,55.91
2022-12-24T13:38:33.955Z,55.99
2022-12-24T13:41:03.840Z,56.22
2022-12-24T13:43:50.494Z,56.17
2022-12-24T13:46:37.196Z,56.22
2022-12-24T13:49:11.843Z,55.98
2022-12-24T13:51:38.852Z,55.98
2022-12-24T13:54:11.359Z,55.80
2022-12-24T13:56:38.291Z,56.25
2022-12-24T13:59:08.354Z,56.17
2022-12-24T14:01:37.470Z,56.17
2022-12-24T14:04:05.802Z,56.42
2022-12-24T14:06:34.506Z,56.40
2022-12-24T14:09:04.388Z,56.18
2022-12-24T14:11:51.066Z,56.28
2022-12-24T14:14:20.930Z,56.49
2022-12-24T14:16:50.726Z,56.05
2022-12-24T14:19:20.469Z,56.53
2022-12-24T14:21:53.007Z,56.33
2022-12-24T14:24:23.293Z,56.37
2022-12-24T14:26:53.173Z,56.09
2022-12-24T14:29:25.455Z,56.39
2022-12-24T14:31:53.804Z,56.18
2022-12-24T14:34:20.789Z,56.48
2022-12-24T14:36:48.879Z,56.17
2022-12-24T14:39:18.730Z,56.55
2022-12-24T14:41:50.591Z,56.42
2022-12-24T14:44:20.468Z,56.48
2022-12-24T14:46:50.344Z,56.61
2022-12-24T14:49:20.286Z,56.38
2022-12-24T14:51:50.121Z,56.22
2022-12-24T14:54:18.270Z,56.23
2022-12-24T14:56:45.097Z,56.40
2022-12-24T14:59:15.123Z,56.27
2022-12-24T15:01:42.164Z,56.59
2022-12-24T15:04:10.546Z,56.47
2022-12-24T15:06:39.024Z,56.77
2022-12-24T15:09:11.017Z,56.33
2022-12-24T15:11:38.145Z,56.56
2022-12-24T15:14:06.003Z,56.50
2022-12-24T15:16:34.195Z,56.48
2022-12-24T15:19:02.677Z,56.99
2022-12-24T15:21:30.929Z,56.64
2022-12-24T15:23:57.912Z,56.80
2022-12-24T15:26:27.928Z,56.68
2022-12-24T15:29:02.191Z,56.88
2022-12-24T15:31:30.693Z,57.06
2022-12-24T15:33:59.649Z,56.81
2022-12-24T15:36:28.812Z,56.88
2022-12-24T15:38:57.728Z,56.86
2022-12-24T15:41:26.906Z,57.07
2022-12-24T15:43:54.699Z,56.80
2022-12-24T15:46:24.902Z,56.81
2022-12-24T15:48:53.444Z,56.94
2022-12-24T15:51:24.172Z,57.19
2022-12-24T15:53:53.021Z,56.77
2022-12-24T15:56:22.897Z,56.93
2022-12-24T15:58:49.719Z,56.88
2022-12-24T16:01:17.062Z,57.18
2022-12-24T16:03:47.110Z,56.84
2022-12-24T16:06:14.026Z,56.71
2022-12-24T16:08:42.016Z,57.00
2022-12-24T16:11:09.212Z,57.05
2022-12-24T16:13:38.231Z,56.95
2022-12-24T16:16:07.419Z,56.76
2022-12-24T16:18:36.447Z,56.84
2022-12-24T16:21:04.053Z,57.06
2022-12-24T16:23:36.267Z,57.10
2022-12-24T16:26:03.098Z,57.19
2022-12-24T16:28:29.956Z,56.97
2022-12-24T16:30:57.146Z,57.18
2022-12-24T16:33:24.489Z,57.11
2022-12-24T16:35:51.367Z,56.94
2022-12-24T16:38:18.201Z,56.83
2022-12-24T16:40:44.998Z,57.19
2022-12-24T16:43:15.019Z,57.00
2022-12-24T16:45:42.161Z,57.24
2022-12-24T16:48:09.080Z,57.18
2022-12-24T16:50:36.468Z,57.05
2022-12-24T16:53:03.364Z,57.15
2022-12-24T16:55:30.225Z,57.07
2022-12-24T16:57:57.130Z,57.07
2022-12-24T17:00:25.810Z,56.94
2022-12-24T17:02:53.753Z,57.42
2022-12-24T17:05:24.070Z,57.17
2022-12-24T17:07:51.149Z,57.27
2022-12-24T17:10:18.231Z,57.31
2022-12-24T17:12:45.072Z,57.08
2022-12-24T17:15:12.177Z,57.06
2022-12-24T17:17:38.986Z,57.06
2022-12-24T17:20:07.033Z,57.33
2022-12-24T17:22:34.211Z,57.47
2022-12-24T17:25:01.249Z,57.77
2022-12-24T17:27:28.620Z,58.03
2022-12-24T17:29:55.551Z,57.75
2022-12-24T17:32:22.611Z,57.53
2022-12-24T17:34:49.552Z,57.85
2022-12-24T17:37:16.560Z,57.63
2022-12-24T17:39:43.790Z,57.71
2022-12-24T17:42:10.747Z,57.39
2022-12-24T17:44:37.639Z,57.47
2022-12-24T17:47:05.460Z,57.09
2022-12-24T17:49:32.739Z,56.98
2022-12-24T17:51:59.604Z,57.00
2022-12-24T17:54:26.424Z,56.94
2022-12-24T17:56:53.353Z,56.89
2022-12-24T17:59:20.188Z,56.92
2022-12-24T18:01:47.161Z,56.75
2022-12-24T18:04:14.115Z,56.82
2022-12-24T18:06:44.296Z,56.57
2022-12-24T18:09:14.175Z,56.33
2022-12-24T18:11:40.976Z,56.27
2022-12-24T18:14:08.446Z,56.67
2022-12-24T18:16:37.270Z,56.55
2022-12-24T18:19:05.089Z,56.21
2022-12-24T18:21:32.646Z,56.06
2022-12-24T18:23:59.558Z,55.95
2022-12-24T18:26:27.994Z,56.21
2022-12-24T18:28:55.622Z,56.09
2022-12-24T18:31:24.016Z,56.21
2022-12-24T18:33:51.531Z,55.72
2022-12-24T18:36:18.881Z,55.83
2022-12-24T18:38:45.798Z,55.63
2022-12-24T18:41:14.453Z,55.79
2022-12-24T18:43:41.889Z,55.92
2022-12-24T18:46:09.967Z,56.08
2022-12-24T18:48:36.840Z,55.53
2022-12-24T18:51:04.042Z,55.76
2022-12-24T18:53:30.869Z,55.60
2022-12-24T18:56:02.365Z,55.62
2022-12-24T19:01:26.007Z,55.36
2022-12-24T19:04:07.865Z,55.56
2022-12-24T19:06:34.808Z,55.51
2022-12-24T19:09:02.130Z,55.43
2022-12-24T19:11:30.458Z,55.38
2022-12-24T19:13:58.435Z,55.59
2022-12-24T19:16:25.987Z,55.51
2022-12-24T19:18:53.027Z,55.44
2022-12-24T19:21:19.857Z,55.39
2022-12-24T19:23:47.020Z,55.20
2022-12-24T19:26:14.548Z,55.64
2022-12-24T19:28:41.609Z,55.35
2022-12-24T19:31:11.264Z,55.16
2022-12-24T19:33:42.990Z,55.54
2022-12-24T19:36:11.842Z,55.40
2022-12-24T19:38:38.800Z,55.49
2022-12-24T19:41:08.381Z,55.26
2022-12-24T19:43:39.034Z,55.16
2022-12-24T19:46:06.258Z,55.14
2022-12-24T19:48:33.256Z,55.14
2022-12-24T19:51:02.244Z,55.29
2022-12-24T19:53:29.447Z,55.14
2022-12-24T19:55:56.588Z,55.27
2022-12-24T19:58:23.602Z,55.15
2022-12-24T20:00:50.461Z,55.25
2022-12-24T20:03:17.431Z,55.55
2022-12-24T20:05:44.944Z,55.40
2022-12-24T20:08:11.788Z,55.43
2022-12-24T20:10:40.340Z,55.26
2022-12-24T20:13:07.593Z,55.59
2022-12-24T20:15:37.425Z,55.42
2022-12-24T20:18:04.303Z,55.52
2022-12-24T20:20:31.268Z,55.39
2022-12-24T20:22:58.621Z,55.15
2022-12-24T20:25:25.523Z,55.15
2022-12-24T20:27:52.314Z,55.42
2022-12-24T20:30:19.479Z,55.20
2022-12-24T20:32:46.332Z,55.26
2022-12-24T20:35:13.196Z,55.27
2022-12-24T20:37:45.656Z,55.64
2022-12-24T20:40:13.299Z,55.48
2022-12-24T20:42:40.187Z,55.65
2022-12-24T20:45:07.313Z,55.24
2022-12-24T20:47:34.151Z,55.58
2022-12-24T20:50:01.139Z,55.43
2022-12-24T20:52:28.024Z,55.62
2022-12-24T20:54:54.852Z,55.49
2022-12-24T20:57:25.935Z,55.47
2022-12-24T20:59:54.855Z,55.46
2022-12-24T21:02:21.932Z,55.45
2022-12-24T21:04:50.331Z,55.45
2022-12-24T21:07:17.870Z,55.73
2022-12-24T21:09:44.705Z,55.51
2022-12-24T21:12:15.101Z,55.64
2022-12-24T21:14:41.968Z,55.52
2022-12-24T21:17:15.213Z,55.84
2022-12-24T21:19:42.681Z,55.60
2022-12-24T21:22:09.507Z,55.63
2022-12-24T21:24:36.312Z,55.62
2022-12-24T21:27:03.172Z,55.98
2022-12-24T21:29:30.033Z,55.81
2022-12-24T21:31:56.976Z,55.73
2022-12-24T21:34:23.810Z,55.90
2022-12-24T21:36:50.765Z,55.71
2022-12-24T21:39:17.767Z,55.62
2022-12-24T21:41:44.749Z,55.51
2022-12-24T21:44:11.727Z,55.59
2022-12-24T21:46:38.647Z,55.80
2022-12-24T21:49:08.586Z,55.98
2022-12-24T21:51:35.388Z,55.61
2022-12-24T21:54:05.437Z,55.92
2022-12-24T21:56:52.248Z,55.92
2022-12-24T21:59:24.702Z,55.78
2022-12-24T22:01:53.505Z,55.95
2022-12-24T22:04:20.489Z,55.78
2022-12-24T22:06:50.562Z,55.78
2022-12-24T22:09:20.471Z,55.97
2022-12-24T22:11:53.911Z,56.17
2022-12-24T22:14:21.963Z,55.91
2022-12-24T22:16:48.956Z,56.20
2022-12-24T22:19:16.053Z,55.91
2022-12-24T22:21:42.924Z,56.03
2022-12-24T22:24:09.793Z,55.79
2022-12-24T22:26:36.667Z,56.25
2022-12-24T22:29:05.242Z,56.12
2022-12-24T22:31:32.887Z,56.32
2022-12-24T22:34:00.181Z,56.10
2022-12-24T22:36:27.507Z,56.39
2022-12-24T22:38:54.327Z,56.40
2022-12-24T22:41:21.151Z,56.00
2022-12-24T22:43:49.297Z,56.18
2022-12-24T22:46:16.211Z,56.45
2022-12-24T22:48:43.732Z,56.32
2022-12-24T22:51:12.344Z,56.40
2022-12-24T22:53:39.840Z,56.52
2022-12-24T22:56:07.292Z,56.43
2022-12-24T22:58:34.955Z,56.53
2022-12-24T23:01:02.183Z,56.28
2022-12-24T23:03:29.685Z,56.12
2022-12-24T23:05:58.115Z,56.46
2022-12-24T23:08:25.567Z,56.66
2022-12-24T23:10:53.513Z,56.50
2022-12-24T23:13:23.846Z,56.62
2022-12-24T23:15:50.928Z,56.30
2022-12-24T23:18:17.729Z,56.77
2022-12-24T23:20:46.195Z,56.58
2022-12-24T23:23:14.199Z,56.54
2022-12-24T23:25:41.067Z,56.79
2022-12-24T23:28:07.904Z,56.79
2022-12-24T23:30:36.028Z,56.42
2022-12-24T23:33:02.962Z,56.61
2022-12-24T23:35:29.855Z,56.50
2022-12-24T23:37:56.650Z,56.75
2022-12-24T23:40:23.507Z,57.02
2022-12-24T23:42:50.328Z,56.83
2022-12-24T23:45:17.269Z,56.62
2022-12-24T23:47:44.119Z,56.87
2022-12-24T23:50:11.430Z,56.70
2022-12-24T23:52:38.277Z,57.03
2022-12-24T23:55:05.763Z,56.80
2022-12-24T23:57:32.664Z,56.87
2022-12-24T23:59:59.445Z,57.06
